createdAt,value
2022-10-13T00:00:57.119Z,85.63
2022-10-13T00:03:23.689Z,85.79
2022-10-13T00:05:52.175Z,86.93
2022-10-13T00:08:21.603Z,86.62
2022-10-13T00:10:50.884Z,86.22
2022-10-13T00:13:18.549Z,85.94
2022-10-13T00:15:47.400Z,86.93
2022-10-13T00:18:14.923Z,87.09
2022-10-13T00:20:49.562Z,86.94
2022-10-13T00:23:17.421Z,86.89
2022-10-13T00:25:46.608Z,86.47
2022-10-13T00:28:14.345Z,86.47
2022-10-13T00:30:41.094Z,86.41
2022-10-13T00:33:07.850Z,86.02
2022-10-13T00:35:39.699Z,86.45
2022-10-13T00:38:06.177Z,86.34
2022-10-13T00:40:32.683Z,86.98
2022-10-13T00:42:59.248Z,86.84
2022-10-13T00:45:29.844Z,87.31
2022-10-13T00:48:00.413Z,86.94
2022-10-13T00:50:34.254Z,87.92
2022-10-13T00:53:01.630Z,87.24
2022-10-13T00:55:34.154Z,87.10
2022-10-13T00:58:05.663Z,86.96
2022-10-13T01:00:34.606Z,86.54
2022-10-13T01:03:02.635Z,87.19
2022-10-13T01:05:30.274Z,86.86
2022-10-13T01:07:57.310Z,86.74
2022-10-13T01:10:55.189Z,88.64
2022-10-13T01:13:48.855Z,88.14
2022-10-13T01:16:22.003Z,88.42
2022-10-13T01:18:57.562Z,88.20
2022-10-13T01:21:31.094Z,88.32
2022-10-13T01:24:13.228Z,88.88
2022-10-13T01:26:51.471Z,87.38
2022-10-13T01:29:17.916Z,86.70
2022-10-13T01:32:20.383Z,88.23
2022-10-13T01:35:05.695Z,88.35
2022-10-13T01:37:54.361Z,89.03
2022-10-13T01:40:23.843Z,88.31
2022-10-13T01:43:12.974Z,89.30
2022-10-13T01:46:01.891Z,88.96
2022-10-13T01:48:29.464Z,87.53
2022-10-13T01:50:58.804Z,88.04
2022-10-13T01:53:26.272Z,87.01
2022-10-13T01:55:55.889Z,87.09
2022-10-13T01:58:25.035Z,87.00
2022-10-13T02:01:20.822Z,88.86
2022-10-13T02:04:02.414Z,88.62
2022-10-13T02:06:36.334Z,87.85
2022-10-13T02:09:21.123Z,88.62
2022-10-13T02:11:54.310Z,87.92
2022-10-13T02:14:27.758Z,88.44
2022-10-13T02:16:56.007Z,88.11
2022-10-13T02:19:23.781Z,87.77
2022-10-13T02:21:53.266Z,87.42
2022-10-13T02:24:20.133Z,87.98
2022-10-13T02:26:47.503Z,87.91
2022-10-13T02:29:16.535Z,87.60
2022-10-13T02:31:44.936Z,88.05
2022-10-13T02:34:12.350Z,87.76
2022-10-13T02:36:39.612Z,87.55
2022-10-13T02:39:10.678Z,87.72
2022-10-13T02:41:38.040Z,87.96
2022-10-13T02:44:05.665Z,87.88
2022-10-13T02:46:32.247Z,87.95
2022-10-13T02:48:58.753Z,87.22
2022-10-13T02:51:25.420Z,87.43
2022-10-13T02:53:51.971Z,87.96
2022-10-13T02:56:19.431Z,87.55
2022-10-13T02:58:45.947Z,87.92
2022-10-13T03:01:15.902Z,87.63
2022-10-13T03:03:42.791Z,87.43
2022-10-13T03:06:09.574Z,87.08
2022-10-13T03:08:36.633Z,87.44
2022-10-13T03:11:03.282Z,87.89
2022-10-13T03:13:29.803Z,87.42
2022-10-13T03:15:56.387Z,87.40
2022-10-13T03:18:23.138Z,87.83
2022-10-13T03:21:01.309Z,88.69
2022-10-13T03:23:28.102Z,87.40
2022-10-13T03:25:55.200Z,88.05
2022-10-13T03:28:22.709Z,87.38
2022-10-13T03:30:49.281Z,87.28
2022-10-13T03:33:34.662Z,87.41
2022-10-13T03:36:05.599Z,87.92
2022-10-13T03:38:34.406Z,87.85
2022-10-13T03:41:05.762Z,87.60
2022-10-13T03:43:32.231Z,87.53
2022-10-13T03:46:00.678Z,87.67
2022-10-13T03:48:27.944Z,87.13
2022-10-13T03:50:55.052Z,87.29
2022-10-13T03:53:22.306Z,87.22
2022-10-13T03:55:54.549Z,88.03
2022-10-13T03:58:23.577Z,88.14
2022-10-13T04:00:51.423Z,87.33
2022-10-13T04:03:18.016Z,87.66
2022-10-13T04:05:44.859Z,87.23
2022-10-13T04:08:12.436Z,87.81
2022-10-13T04:10:39.886Z,87.91
2022-10-13T04:13:06.991Z,87.78
2022-10-13T04:15:38.001Z,88.08
2022-10-13T04:18:06.290Z,88.02
2022-10-13T04:20:37.189Z,88.37
2022-10-13T04:23:03.781Z,87.41
2022-10-13T04:25:30.355Z,88.15
2022-10-13T04:27:56.861Z,87.27
2022-10-13T04:30:23.391Z,88.21
2022-10-13T04:32:50.000Z,88.08
2022-10-13T04:35:16.632Z,87.38
2022-10-13T04:37:45.190Z,87.43
2022-10-13T04:40:12.106Z,88.18
2022-10-13T04:42:39.134Z,87.91
2022-10-13T04:45:07.001Z,87.61
2022-10-13T04:47:37.101Z,87.72
2022-10-13T04:50:04.382Z,88.10
2022-10-13T04:52:30.894Z,88.21
2022-10-13T04:54:57.501Z,88.30
2022-10-13T04:57:24.017Z,87.81
2022-10-13T04:59:50.630Z,87.67
2022-10-13T05:02:17.537Z,87.94
2022-10-13T05:04:44.616Z,87.94
2022-10-13T05:07:18.052Z,87.81
2022-10-13T05:09:45.368Z,87.88
2022-10-13T05:12:11.997Z,87.77
2022-10-13T05:14:38.470Z,87.89
2022-10-13T05:17:05.049Z,88.22
2022-10-13T05:19:32.869Z,88.30
2022-10-13T05:21:59.501Z,88.22
2022-10-13T05:24:36.594Z,88.42
2022-10-13T05:27:09.210Z,88.44
2022-10-13T05:29:36.690Z,88.39
2022-10-13T05:32:03.786Z,88.36
2022-10-13T05:34:30.745Z,87.88
2022-10-13T05:36:57.377Z,88.46
2022-10-13T05:39:23.994Z,87.80
2022-10-13T05:41:50.716Z,88.50
2022-10-13T05:44:17.529Z,88.73
2022-10-13T05:46:44.546Z,88.13
2022-10-13T05:49:11.188Z,88.64
2022-10-13T05:51:45.888Z,88.65
2022-10-13T05:54:15.178Z,89.07
2022-10-13T05:56:46.315Z,88.64
2022-10-13T05:59:16.485Z,88.27
2022-10-13T06:01:43.989Z,88.72
2022-10-13T06:04:17.463Z,89.27
2022-10-13T06:06:46.794Z,88.63
2022-10-13T06:09:13.415Z,88.68
2022-10-13T06:11:39.889Z,88.83
2022-10-13T06:14:06.496Z,88.99
2022-10-13T06:16:36.390Z,89.17
2022-10-13T06:19:04.650Z,88.79
2022-10-13T06:21:31.226Z,88.41
2022-10-13T06:23:57.837Z,88.17
2022-10-13T06:26:24.527Z,88.42
2022-10-13T06:28:54.467Z,88.53
2022-10-13T06:31:23.625Z,87.75
2022-10-13T06:33:50.106Z,87.60
2022-10-13T06:36:16.826Z,87.96
2022-10-13T06:38:43.334Z,87.78
2022-10-13T06:41:09.962Z,87.44
2022-10-13T06:43:40.503Z,87.50
2022-10-13T06:46:07.497Z,87.88
2022-10-13T06:48:34.816Z,87.81
2022-10-13T06:51:03.418Z,87.88
2022-10-13T06:53:30.285Z,87.76
2022-10-13T06:55:58.901Z,87.76
2022-10-13T06:58:25.746Z,87.74
2022-10-13T07:00:52.664Z,87.43
2022-10-13T07:03:19.344Z,87.37
2022-10-13T07:05:46.115Z,87.91
2022-10-13T07:08:13.792Z,87.65
2022-10-13T07:10:41.016Z,87.98
2022-10-13T07:13:07.956Z,88.01
2022-10-13T07:15:38.290Z,88.23
2022-10-13T07:18:06.800Z,88.55
2022-10-13T07:20:34.784Z,88.66
2022-10-13T07:23:01.596Z,88.27
2022-10-13T07:25:28.345Z,88.67
2022-10-13T07:27:54.897Z,88.93
2022-10-13T07:30:22.221Z,89.32
2022-10-13T07:32:49.031Z,89.24
2022-10-13T07:35:15.785Z,89.45
2022-10-13T07:37:42.427Z,89.73
2022-10-13T07:40:09.587Z,90.33
2022-10-13T07:42:36.159Z,89.79
2022-10-13T07:45:02.913Z,89.62
2022-10-13T07:47:29.503Z,89.98
2022-10-13T07:49:56.108Z,90.52
2022-10-13T07:52:23.178Z,89.96
2022-10-13T07:54:50.984Z,89.86
2022-10-13T07:57:18.022Z,90.22
2022-10-13T07:59:44.543Z,90.53
2022-10-13T08:02:11.283Z,89.70
2022-10-13T08:04:38.088Z,90.03
2022-10-13T08:07:05.999Z,90.46
2022-10-13T08:09:33.143Z,90.17
2022-10-13T08:12:01.953Z,89.16
2022-10-13T08:14:29.683Z,89.73
2022-10-13T08:16:57.679Z,89.08
2022-10-13T08:19:26.485Z,89.77
2022-10-13T08:21:58.196Z,88.21
2022-10-13T08:24:26.349Z,89.24
2022-10-13T08:26:53.432Z,88.31
2022-10-13T08:29:22.345Z,88.52
2022-10-13T08:34:16.471Z,89.05
2022-10-13T08:36:43.665Z,88.95
2022-10-13T08:39:10.906Z,89.06
2022-10-13T08:41:45.840Z,89.71
2022-10-13T08:47:51.706Z,90.71
2022-10-13T08:50:22.244Z,88.60
2022-10-13T08:52:59.889Z,88.60
2022-10-13T08:55:42.140Z,88.75
2022-10-13T08:58:26.947Z,90.08
2022-10-13T09:01:08.671Z,89.96
2022-10-13T09:03:52.441Z,88.99
2022-10-13T09:06:28.595Z,88.62
2022-10-13T09:09:10.942Z,88.53
2022-10-13T09:11:48.900Z,88.66
2022-10-13T09:14:36.493Z,89.38
2022-10-13T09:17:15.998Z,88.33
2022-10-13T09:19:42.941Z,87.30
2022-10-13T09:22:30.606Z,88.45
2022-10-13T09:25:15.463Z,88.14
2022-10-13T09:27:58.433Z,86.71
2022-10-13T09:30:25.906Z,86.12
2022-10-13T09:33:12.755Z,87.65
2022-10-13T09:35:42.347Z,85.26
2022-10-13T09:38:19.819Z,85.36
2022-10-13T09:41:09.683Z,87.37
2022-10-13T09:43:48.294Z,86.98
2022-10-13T09:46:58.460Z,87.06
2022-10-13T09:49:36.171Z,86.42
2022-10-13T09:52:07.716Z,84.81
2022-10-13T09:54:40.262Z,85.19
2022-10-13T09:57:14.285Z,85.39
2022-10-13T09:59:46.058Z,84.95
2022-10-13T10:02:37.582Z,86.20
2022-10-13T10:05:30.510Z,85.95
2022-10-13T10:08:06.793Z,84.66
2022-10-13T10:10:36.235Z,83.99
2022-10-13T10:13:03.783Z,82.60
2022-10-13T10:15:38.812Z,83.54
2022-10-13T10:18:33.450Z,84.16
2022-10-13T10:21:26.387Z,83.89
2022-10-13T10:24:01.700Z,83.45
2022-10-13T10:26:50.008Z,84.59
2022-10-13T10:29:24.341Z,83.64
2022-10-13T10:32:15.336Z,85.12
2022-10-13T10:35:01.628Z,83.98
2022-10-13T10:37:36.418Z,85.24
2022-10-13T10:40:21.701Z,85.73
2022-10-13T10:43:12.868Z,84.82
2022-10-13T10:45:39.959Z,84.09
2022-10-13T10:48:12.655Z,85.56
2022-10-13T10:50:39.963Z,83.93
2022-10-13T10:53:13.599Z,84.20
2022-10-13T10:55:55.146Z,85.45
2022-10-13T10:58:31.803Z,85.68
2022-10-13T11:01:08.229Z,85.82
2022-10-13T11:03:50.665Z,84.03
2022-10-13T11:06:17.102Z,84.24
2022-10-13T11:08:46.707Z,84.61
2022-10-13T11:11:25.113Z,85.80
2022-10-13T11:14:07.166Z,85.32
2022-10-13T11:16:58.348Z,85.93
2022-10-13T11:19:36.592Z,85.93
2022-10-13T11:22:03.243Z,84.96
2022-10-13T11:24:42.084Z,85.91
2022-10-13T11:27:09.173Z,84.53
2022-10-13T11:29:46.425Z,85.21
2022-10-13T11:32:42.844Z,86.12
2022-10-13T11:35:12.270Z,84.56
2022-10-13T11:38:06.922Z,82.69
2022-10-13T11:40:56.158Z,84.45
2022-10-13T11:43:28.716Z,83.05
2022-10-13T11:46:24.965Z,86.08
2022-10-13T11:49:27.669Z,85.98
2022-10-13T11:52:16.070Z,83.80
2022-10-13T11:54:42.536Z,83.00
2022-10-13T11:57:21.123Z,84.60
2022-10-13T11:59:49.517Z,82.03
2022-10-13T12:02:19.006Z,82.29
2022-10-13T12:05:17.947Z,84.12
2022-10-13T12:07:47.497Z,81.76
2022-10-13T12:10:23.595Z,82.54
2022-10-13T12:12:51.536Z,81.05
2022-10-13T12:15:44.728Z,83.98
2022-10-13T12:18:24.894Z,82.85
2022-10-13T12:20:53.347Z,79.66
2022-10-13T12:23:19.972Z,78.71
2022-10-13T12:25:49.089Z,79.45
2022-10-13T12:28:19.928Z,80.78
2022-10-13T12:30:58.935Z,80.34
2022-10-13T12:33:35.344Z,80.20
2022-10-13T12:36:11.949Z,83.15
2022-10-13T12:38:42.186Z,78.95
2022-10-13T12:41:10.621Z,78.64
2022-10-13T12:43:38.426Z,77.68
2022-10-13T12:46:07.312Z,77.71
2022-10-13T12:48:36.189Z,77.43
2022-10-13T12:51:17.174Z,78.13
2022-10-13T12:53:45.681Z,76.90
2022-10-13T12:56:33.285Z,79.50
2022-10-13T12:59:00.218Z,75.45
2022-10-13T13:01:26.999Z,76.09
2022-10-13T13:03:56.420Z,75.58
2022-10-13T13:06:35.960Z,76.32
2022-10-13T13:09:19.680Z,77.96
2022-10-13T13:11:46.760Z,76.18
2022-10-13T13:14:36.859Z,78.62
2022-10-13T13:17:45.355Z,76.73
2022-10-13T13:20:31.007Z,75.02
2022-10-13T13:22:58.202Z,74.32
2022-10-13T13:25:25.468Z,75.34
2022-10-13T13:27:52.964Z,75.00
2022-10-13T13:30:21.891Z,75.54
2022-10-13T13:32:48.615Z,75.35
2022-10-13T13:35:15.339Z,75.23
2022-10-13T13:37:47.995Z,76.58
2022-10-13T13:40:17.591Z,75.47
2022-10-13T13:42:44.172Z,75.78
2022-10-13T13:45:14.818Z,77.31
2022-10-13T13:47:41.529Z,75.47
2022-10-13T13:50:32.783Z,76.77
2022-10-13T13:53:00.841Z,75.88
2022-10-13T13:55:29.596Z,75.32
2022-10-13T13:57:57.072Z,76.34
2022-10-13T14:00:24.331Z,75.78
2022-10-13T14:02:50.817Z,76.30
2022-10-13T14:05:17.424Z,76.42
2022-10-13T14:07:43.963Z,75.25
2022-10-13T14:10:11.150Z,75.16
2022-10-13T14:12:38.010Z,74.95
2022-10-13T14:15:05.698Z,75.45
2022-10-13T14:17:32.208Z,74.92
2022-10-13T14:19:58.669Z,74.54
2022-10-13T14:22:25.561Z,74.82
2022-10-13T14:24:52.366Z,75.22
2022-10-13T14:27:18.930Z,75.54
2022-10-13T14:29:45.476Z,75.32
2022-10-13T14:32:12.215Z,75.20
2022-10-13T14:34:38.695Z,74.97
2022-10-13T14:37:05.373Z,74.47
2022-10-13T14:39:31.877Z,74.69
2022-10-13T14:41:58.334Z,74.05
2022-10-13T14:44:24.884Z,73.97
2022-10-13T14:46:51.371Z,73.75
2022-10-13T14:49:17.861Z,73.61
2022-10-13T14:51:44.387Z,73.95
2022-10-13T14:54:11.016Z,73.85
2022-10-13T14:56:37.695Z,72.78
2022-10-13T14:59:06.600Z,74.15
2022-10-13T15:01:33.836Z,72.25
2022-10-13T15:04:01.740Z,72.00
2022-10-13T15:06:28.635Z,72.06
2022-10-13T15:08:55.510Z,72.37
2022-10-13T15:11:22.530Z,71.78
2022-10-13T15:13:49.149Z,71.11
2022-10-13T15:16:18.722Z,71.43
2022-10-13T15:18:45.903Z,70.76
2022-10-13T15:21:12.815Z,70.22
2022-10-13T15:23:39.693Z,69.96
2022-10-13T15:26:07.008Z,69.50
2022-10-13T15:28:40.042Z,72.81
2022-10-13T15:31:07.190Z,69.61
2022-10-13T15:33:33.990Z,70.17
2022-10-13T15:36:00.572Z,69.56
2022-10-13T15:38:27.399Z,69.13
2022-10-13T15:40:59.190Z,72.99
2022-10-13T15:43:25.678Z,71.31
2022-10-13T15:45:59.638Z,72.84
2022-10-13T15:48:26.481Z,70.59
2022-10-13T15:50:53.045Z,70.61
2022-10-13T15:53:20.164Z,70.78
2022-10-13T15:55:47.555Z,70.81
2022-10-13T15:58:14.499Z,70.71
2022-10-13T16:00:41.682Z,71.45
2022-10-13T16:03:14.591Z,74.44
2022-10-13T16:05:42.668Z,73.15
2022-10-13T16:08:09.425Z,72.68
2022-10-13T16:10:39.179Z,73.58
2022-10-13T16:13:05.690Z,72.78
2022-10-13T16:15:32.181Z,73.31
2022-10-13T16:17:58.667Z,73.03
2022-10-13T16:20:25.254Z,73.05
2022-10-13T16:22:53.961Z,74.04
2022-10-13T16:25:20.506Z,74.20
2022-10-13T16:27:47.072Z,74.12
2022-10-13T16:30:13.698Z,74.81
2022-10-13T16:32:40.635Z,73.89
2022-10-13T16:35:07.685Z,74.22
2022-10-13T16:37:34.322Z,74.89
2022-10-13T16:40:00.893Z,75.11
2022-10-13T16:42:27.427Z,74.83
2022-10-13T16:44:53.928Z,75.00
2022-10-13T16:47:20.567Z,75.28
2022-10-13T16:49:47.425Z,76.10
2022-10-13T16:52:14.032Z,76.82
2022-10-13T16:54:40.508Z,77.28
2022-10-13T16:57:06.994Z,77.55
2022-10-13T16:59:33.514Z,77.13
2022-10-13T17:02:00.198Z,78.02
2022-10-13T17:04:26.733Z,78.31
2022-10-13T17:06:53.412Z,78.38
2022-10-13T17:09:19.893Z,78.94
2022-10-13T17:11:46.463Z,79.40
2022-10-13T17:14:12.922Z,79.44
2022-10-13T17:16:39.544Z,79.82
2022-10-13T17:19:06.791Z,79.18
2022-10-13T17:21:33.692Z,79.63
2022-10-13T17:24:00.209Z,80.11
2022-10-13T17:26:26.730Z,80.63
2022-10-13T17:28:53.979Z,79.20
2022-10-13T17:31:22.903Z,80.75
2022-10-13T17:33:50.771Z,80.85
2022-10-13T17:36:24.194Z,82.45
2022-10-13T17:38:51.667Z,80.94
2022-10-13T17:41:18.997Z,80.93
2022-10-13T17:43:45.650Z,81.86
2022-10-13T17:46:35.786Z,81.09
2022-10-13T17:49:02.059Z,80.89
2022-10-13T17:51:28.743Z,81.51
2022-10-13T17:53:55.567Z,81.40
2022-10-13T17:56:25.683Z,82.67
2022-10-13T17:58:52.587Z,82.32
2022-10-13T18:01:21.737Z,82.36
2022-10-13T18:03:56.822Z,84.04
2022-10-13T18:06:23.762Z,82.61
2022-10-13T18:08:50.865Z,82.81
2022-10-13T18:11:19.740Z,83.25
2022-10-13T18:13:46.984Z,82.86
2022-10-13T18:16:22.167Z,83.62
2022-10-13T18:18:50.358Z,83.09
2022-10-13T18:21:19.264Z,82.96
2022-10-13T18:23:45.982Z,82.87
2022-10-13T18:26:15.309Z,82.98
2022-10-13T18:28:45.713Z,83.09
2022-10-13T18:31:18.128Z,84.09
2022-10-13T18:33:45.856Z,83.18
2022-10-13T18:36:20.782Z,84.16
2022-10-13T18:38:47.748Z,82.89
2022-10-13T18:41:16.095Z,83.18
2022-10-13T18:43:42.713Z,83.65
2022-10-13T18:46:09.300Z,83.27
2022-10-13T18:48:35.779Z,83.13
2022-10-13T18:51:04.301Z,83.86
2022-10-13T18:53:30.851Z,83.76
2022-10-13T18:56:03.161Z,84.78
2022-10-13T18:58:30.963Z,83.91
2022-10-13T19:01:00.457Z,84.39
2022-10-13T19:03:27.048Z,84.32
2022-10-13T19:05:53.724Z,84.41
2022-10-13T19:08:20.274Z,83.78
2022-10-13T19:10:46.815Z,83.97
2022-10-13T19:13:13.346Z,84.22
2022-10-13T19:15:40.333Z,84.66
2022-10-13T19:18:06.817Z,84.24
2022-10-13T19:20:33.353Z,84.22
2022-10-13T19:22:59.847Z,84.44
2022-10-13T19:25:26.529Z,84.34
2022-10-13T19:27:53.576Z,84.74
2022-10-13T19:30:25.071Z,84.61
2022-10-13T19:32:51.651Z,84.58
2022-10-13T19:35:18.238Z,84.79
2022-10-13T19:37:44.708Z,84.80
2022-10-13T19:40:11.179Z,84.82
2022-10-13T19:42:37.651Z,85.05
2022-10-13T19:45:05.706Z,84.76
2022-10-13T19:47:32.247Z,85.24
2022-10-13T19:49:58.685Z,85.25
2022-10-13T19:52:25.165Z,85.27
2022-10-13T19:54:51.691Z,85.20
2022-10-13T19:57:18.666Z,85.37
2022-10-13T19:59:47.715Z,85.43
2022-10-13T20:02:14.671Z,85.46
2022-10-13T20:04:41.243Z,85.00
2022-10-13T20:07:07.748Z,85.51
2022-10-13T20:09:34.261Z,85.76
2022-10-13T20:12:00.730Z,85.31
2022-10-13T20:14:27.176Z,85.73
2022-10-13T20:16:56.433Z,85.53
2022-10-13T20:19:22.943Z,85.39
2022-10-13T20:21:52.474Z,85.63
2022-10-13T20:24:21.523Z,86.43
2022-10-13T20:26:48.015Z,85.71
2022-10-13T20:29:15.059Z,85.55
2022-10-13T20:31:42.219Z,85.57
2022-10-13T20:34:10.376Z,85.37
2022-10-13T20:36:38.978Z,86.09
2022-10-13T20:39:06.417Z,86.02
2022-10-13T20:41:33.286Z,85.59
2022-10-13T20:44:01.358Z,85.52
2022-10-13T20:46:27.906Z,85.73
2022-10-13T20:49:11.907Z,85.67
2022-10-13T20:51:39.822Z,86.24
2022-10-13T20:54:06.364Z,85.91
2022-10-13T20:56:33.344Z,85.86
2022-10-13T20:59:05.222Z,86.97
2022-10-13T21:01:32.546Z,86.26
2022-10-13T21:03:59.018Z,85.60
2022-10-13T21:06:28.489Z,85.92
2022-10-13T21:09:01.259Z,85.16
2022-10-13T21:11:32.946Z,86.32
2022-10-13T21:14:07.090Z,86.29
2022-10-13T21:16:37.949Z,85.81
2022-10-13T21:19:08.280Z,85.69
2022-10-13T21:21:36.518Z,85.40
2022-10-13T21:24:07.667Z,86.83
2022-10-13T21:26:43.033Z,86.64
2022-10-13T21:29:10.004Z,86.04
2022-10-13T21:31:37.609Z,85.34
2022-10-13T21:34:04.283Z,86.43
2022-10-13T21:36:32.426Z,86.16
2022-10-13T21:39:01.314Z,86.76
2022-10-13T21:41:28.373Z,85.86
2022-10-13T21:43:55.659Z,86.37
2022-10-13T21:46:25.541Z,86.34
2022-10-13T21:48:57.001Z,87.12
2022-10-13T21:51:26.531Z,86.99
2022-10-13T21:53:55.918Z,86.77
2022-10-13T21:56:24.142Z,87.37
2022-10-13T21:58:50.718Z,86.52
2022-10-13T22:01:18.611Z,86.61
2022-10-13T22:03:49.506Z,87.27
2022-10-13T22:06:19.387Z,86.53
2022-10-13T22:08:48.551Z,86.32
2022-10-13T22:11:15.668Z,85.93
2022-10-13T22:13:42.175Z,86.39
2022-10-13T22:16:12.087Z,87.85
2022-10-13T22:18:38.561Z,87.44
2022-10-13T22:21:07.744Z,86.46
2022-10-13T22:23:34.611Z,86.82
2022-10-13T22:26:01.109Z,87.35
2022-10-13T22:28:28.029Z,86.53
2022-10-13T22:30:54.613Z,87.82
2022-10-13T22:33:21.288Z,87.49
2022-10-13T22:35:47.921Z,87.25
2022-10-13T22:38:14.782Z,87.06
2022-10-13T22:40:44.159Z,87.49
2022-10-13T22:43:10.655Z,87.62
2022-10-13T22:45:37.212Z,86.35
2022-10-13T22:48:04.245Z,86.27
2022-10-13T22:50:30.878Z,86.50
2022-10-13T22:52:57.454Z,87.29
2022-10-13T22:55:24.053Z,87.05
2022-10-13T22:57:50.592Z,87.00
2022-10-13T23:00:17.235Z,87.22
2022-10-13T23:02:44.019Z,87.34
2022-10-13T23:05:11.051Z,86.38
2022-10-13T23:07:40.340Z,87.59
2022-10-13T23:10:10.530Z,87.01
2022-10-13T23:12:36.988Z,86.78
2022-10-13T23:15:06.772Z,86.44
2022-10-13T23:17:36.945Z,87.72
2022-10-13T23:20:04.635Z,87.59
2022-10-13T23:22:31.310Z,87.62
2022-10-13T23:24:57.872Z,88.27
2022-10-13T23:27:24.593Z,86.88
2022-10-13T23:29:51.153Z,87.43
2022-10-13T23:32:22.439Z,86.86
2022-10-13T23:45:50.403Z,87.93
2022-10-13T23:48:16.870Z,87.63
2022-10-13T23:50:43.378Z,86.75
2022-10-13T23:53:09.866Z,87.64
2022-10-13T23:55:40.103Z,87.39
2022-10-13T23:58:08.359Z,88.28
